Time;durP1;ratioP1;P1;durP2;ratioP2;P2;SDS_P1;SDS_P2;PMS_P1;PMS_P2;Temp;Humidity;BMP_temperature;BMP_pressure;BME280_temperature;BME280_humidity;BME280_pressure;Samples;Min_cycle;Max_cycle;Signal;HPM_P1;HPM_P2
2023/07/13 00:00:52;;;;;;;1.70;1.60;;;;;;;;;;10312266;28;20140;-82
2023/07/13 00:05:59;;;;;;;3.93;1.53;;;;;;;;;;10327776;28;20555;-80
2023/07/13 00:11:03;;;;;;;3.50;2.00;;;;;;;;;;10315633;28;20034;-78
2023/07/13 00:16:03;;;;;;;2.15;1.42;;;;;;;;;;10310780;28;20042;-80
2023/07/13 00:21:05;;;;;;;1.95;1.42;;;;;;;;;;10310414;28;20913;-78
2023/07/13 00:26:07;;;;;;;2.70;1.67;;;;;;;;;;10302359;28;20170;-80
2023/07/13 00:31:07;;;;;;;1.77;1.30;;;;;;;;;;10307648;28;20380;-81
2023/07/13 00:36:08;;;;;;;2.40;1.55;;;;;;;;;;10306072;28;20038;-82
2023/07/13 00:41:09;;;;;;;1.67;1.33;;;;;;;;;;10306503;28;20042;-81
2023/07/13 00:46:13;;;;;;;2.97;1.52;;;;;;;;;;10327300;28;20035;-78
2023/07/13 00:51:14;;;;;;;2.40;1.70;;;;;;;;;;10307723;28;20058;-78
2023/07/13 00:56:15;;;;;;;2.47;1.92;;;;;;;;;;10300772;28;20107;-77
2023/07/13 01:01:15;;;;;;;3.42;1.50;;;;;;;;;;10307022;28;20440;-77
2023/07/13 01:06:17;;;;;;;2.00;1.47;;;;;;;;;;10307627;28;20034;-77
2023/07/13 01:11:18;;;;;;;2.67;1.77;;;;;;;;;;10300660;28;20117;-76
2023/07/13 01:16:30;;;;;;;2.80;1.60;;;;;;;;;;10300365;28;20100;-76
2023/07/13 01:21:32;;;;;;;4.07;2.00;;;;;;;;;;10306488;28;20057;-77
2023/07/13 01:26:33;;;;;;;1.67;1.40;;;;;;;;;;10302394;28;20046;-77
2023/07/13 01:31:33;;;;;;;2.87;1.70;;;;;;;;;;10306946;28;20061;-78
2023/07/13 01:36:34;;;;;;;1.90;1.40;;;;;;;;;;10318457;28;20045;-78
2023/07/13 01:41:34;;;;;;;2.47;1.57;;;;;;;;;;10301813;28;20043;-77
2023/07/13 01:46:35;;;;;;;2.38;1.63;;;;;;;;;;10306141;28;20031;-77
2023/07/13 01:51:35;;;;;;;3.13;1.60;;;;;;;;;;10304284;28;20074;-79
2023/07/13 01:56:36;;;;;;;2.38;1.50;;;;;;;;;;10308807;28;20414;-78
2023/07/13 02:01:36;;;;;;;3.63;1.90;;;;;;;;;;10308087;28;20497;-78
2023/07/13 02:06:36;;;;;;;2.93;1.70;;;;;;;;;;10303113;28;20088;-78
2023/07/13 02:11:37;;;;;;;1.90;1.53;;;;;;;;;;10307660;28;20849;-77
2023/07/13 02:16:37;;;;;;;2.92;1.55;;;;;;;;;;10308826;28;20281;-77
2023/07/13 02:21:38;;;;;;;1.90;1.40;;;;;;;;;;10316697;28;20042;-76
2023/07/13 02:26:38;;;;;;;2.53;1.65;;;;;;;;;;10312922;28;20993;-76
2023/07/13 02:31:38;;;;;;;2.10;1.50;;;;;;;;;;10316272;28;20109;-77
2023/07/13 02:36:39;;;;;;;2.60;1.70;;;;;;;;;;10310781;28;20107;-76
2023/07/13 02:41:40;;;;;;;2.22;1.58;;;;;;;;;;10310974;28;20042;-78
2023/07/13 02:46:40;;;;;;;1.97;1.63;;;;;;;;;;10306236;28;20093;-78
2023/07/13 02:51:40;;;;;;;4.80;1.60;;;;;;;;;;10310849;28;20435;-77
2023/07/13 02:56:41;;;;;;;2.57;1.73;;;;;;;;;;10311581;28;20035;-78
2023/07/13 03:01:41;;;;;;;1.95;1.60;;;;;;;;;;10309180;28;20038;-78
2023/07/13 03:06:42;;;;;;;2.63;1.63;;;;;;;;;;10307031;28;20054;-78
2023/07/13 03:11:43;;;;;;;2.67;1.73;;;;;;;;;;10311265;28;20053;-76
2023/07/13 03:16:54;;;;;;;3.15;1.90;;;;;;;;;;10309064;28;20038;-78
2023/07/13 03:21:58;;;;;;;2.65;1.80;;;;;;;;;;10310087;28;20047;-76
2023/07/13 03:26:58;;;;;;;3.30;1.90;;;;;;;;;;10310387;28;20664;-77
2023/07/13 03:31:59;;;;;;;2.10;1.65;;;;;;;;;;10312758;28;20054;-79
2023/07/13 03:36:59;;;;;;;3.25;1.80;;;;;;;;;;10312112;28;20061;-79
2023/07/13 03:41:59;;;;;;;2.30;1.83;;;;;;;;;;10317027;28;20120;-80
2023/07/13 03:47:01;;;;;;;2.73;1.90;;;;;;;;;;10318673;28;20300;-78
2023/07/13 03:52:03;;;;;;;2.83;2.08;;;;;;;;;;10311206;28;20046;-78
2023/07/13 03:57:04;;;;;;;2.60;1.75;;;;;;;;;;10308706;28;20491;-78
2023/07/13 04:02:07;;;;;;;1.95;1.60;;;;;;;;;;10304286;28;20038;-78
2023/07/13 04:07:08;;;;;;;2.28;1.90;;;;;;;;;;10306368;28;20061;-77
2023/07/13 04:12:08;;;;;;;2.73;1.80;;;;;;;;;;10304880;28;20086;-79
2023/07/13 04:17:09;;;;;;;3.13;2.15;;;;;;;;;;10307005;28;20297;-78
2023/07/13 04:22:09;;;;;;;2.20;1.60;;;;;;;;;;10306332;28;20125;-77
2023/07/13 04:27:10;;;;;;;2.10;1.90;;;;;;;;;;10309518;28;20278;-77
2023/07/13 04:32:10;;;;;;;2.00;1.70;;;;;;;;;;10303742;28;20762;-78
2023/07/13 04:37:10;;;;;;;4.53;1.92;;;;;;;;;;10321471;28;20035;-77
2023/07/13 04:42:11;;;;;;;2.37;1.80;;;;;;;;;;10317720;28;20045;-76
2023/07/13 04:47:12;;;;;;;3.57;1.70;;;;;;;;;;10297560;28;20061;-79
2023/07/13 04:52:12;;;;;;;2.35;1.70;;;;;;;;;;10304707;28;20777;-77
2023/07/13 04:57:13;;;;;;;3.50;2.00;;;;;;;;;;10294836;28;20065;-78
2023/07/13 05:02:13;;;;;;;3.60;2.00;;;;;;;;;;10298485;28;20949;-73
2023/07/13 05:07:14;;;;;;;2.07;1.87;;;;;;;;;;10303382;28;20864;-72
2023/07/13 05:12:14;;;;;;;3.53;1.85;;;;;;;;;;10304340;28;20454;-73
2023/07/13 05:17:14;;;;;;;2.22;1.70;;;;;;;;;;10304901;28;20126;-72
2023/07/13 05:22:15;;;;;;;3.47;2.10;;;;;;;;;;10303859;28;20092;-72
2023/07/13 05:27:15;;;;;;;3.10;2.00;;;;;;;;;;10303231;28;20122;-74
2023/07/13 05:32:16;;;;;;;2.15;1.90;;;;;;;;;;10311469;28;20057;-78
2023/07/13 05:37:17;;;;;;;2.80;1.80;;;;;;;;;;10305962;28;20491;-78
2023/07/13 05:42:17;;;;;;;1.90;1.70;;;;;;;;;;10303599;28;20153;-74
2023/07/13 05:47:17;;;;;;;2.20;1.67;;;;;;;;;;10300840;28;20189;-78
2023/07/13 05:52:18;;;;;;;2.63;2.30;;;;;;;;;;10307082;28;20054;-75
2023/07/13 05:57:18;;;;;;;3.20;1.73;;;;;;;;;;10311800;28;20502;-75
2023/07/13 06:02:18;;;;;;;3.53;1.57;;;;;;;;;;10308655;28;20034;-74
2023/07/13 06:07:19;;;;;;;2.30;1.67;;;;;;;;;;10306364;28;20345;-74
2023/07/13 06:12:19;;;;;;;3.43;1.80;;;;;;;;;;10294289;28;20138;-74
2023/07/13 06:17:19;;;;;;;4.40;2.17;;;;;;;;;;10308125;28;20097;-72
2023/07/13 06:22:20;;;;;;;3.80;1.67;;;;;;;;;;10310853;28;20050;-72
2023/07/13 06:27:20;;;;;;;3.60;1.77;;;;;;;;;;10313363;28;20396;-75
2023/07/13 06:32:20;;;;;;;3.97;2.00;;;;;;;;;;10311010;28;20050;-74
2023/07/13 06:37:21;;;;;;;2.53;1.70;;;;;;;;;;10313833;28;20069;-76
2023/07/13 06:42:21;;;;;;;2.00;1.50;;;;;;;;;;10311723;28;20085;-72
2023/07/13 06:47:22;;;;;;;2.92;1.67;;;;;;;;;;10303757;28;20042;-75
2023/07/13 06:52:22;;;;;;;2.83;1.90;;;;;;;;;;10305722;28;20050;-79
2023/07/13 06:57:22;;;;;;;5.73;1.90;;;;;;;;;;10307843;28;20045;-77
2023/07/13 07:02:23;;;;;;;6.57;1.80;;;;;;;;;;10305020;28;20038;-73
2023/07/13 07:07:24;;;;;;;4.03;1.90;;;;;;;;;;10308740;28;20026;-73
2023/07/13 07:12:24;;;;;;;3.08;1.73;;;;;;;;;;10309309;28;20069;-74
2023/07/13 07:17:25;;;;;;;3.77;1.80;;;;;;;;;;10311125;28;20039;-75
2023/07/13 07:22:27;;;;;;;3.53;1.77;;;;;;;;;;10309149;28;20066;-74
2023/07/13 07:27:27;;;;;;;4.53;2.40;;;;;;;;;;10311820;28;20129;-79
2023/07/13 07:32:29;;;;;;;5.00;1.70;;;;;;;;;;10306638;28;20443;-76
2023/07/13 07:37:29;;;;;;;4.20;1.90;;;;;;;;;;10309805;28;21037;-75
2023/07/13 07:42:29;;;;;;;3.05;1.70;;;;;;;;;;10262073;28;1286848;-75
2023/07/13 07:47:30;;;;;;;3.17;2.17;;;;;;;;;;10310457;28;20133;-77
2023/07/13 07:52:30;;;;;;;2.97;1.80;;;;;;;;;;10305860;28;20054;-78
2023/07/13 07:57:31;;;;;;;3.33;1.70;;;;;;;;;;10306246;28;20349;-77
2023/07/13 08:02:31;;;;;;;3.60;1.70;;;;;;;;;;10309092;28;20126;-77
2023/07/13 08:07:32;;;;;;;4.83;1.87;;;;;;;;;;10307931;28;20026;-80
2023/07/13 08:12:35;;;;;;;4.47;1.83;;;;;;;;;;10311933;28;20038;-78
2023/07/13 08:17:36;;;;;;;2.72;1.25;;;;;;;;;;10316355;28;20463;-75
2023/07/13 08:22:36;;;;;;;2.22;1.52;;;;;;;;;;10316283;28;20064;-76
2023/07/13 08:27:37;;;;;;;2.80;1.50;;;;;;;;;;10310059;28;20034;-75
2023/07/13 08:32:37;;;;;;;5.30;2.30;;;;;;;;;;10306204;28;20093;-76
2023/07/13 08:37:38;;;;;;;2.00;1.38;;;;;;;;;;10306341;28;20273;-74
2023/07/13 08:42:53;;;;;;;1.77;1.20;;;;;;;;;;10302620;28;20044;-75
2023/07/13 08:48:00;;;;;;;2.45;1.45;;;;;;;;;;10308380;28;20740;-78
2023/07/13 08:53:03;;;;;;;3.00;1.50;;;;;;;;;;10308207;28;20050;-76
2023/07/13 08:58:17;;;;;;;2.95;1.30;;;;;;;;;;10303319;28;20092;-75
2023/07/13 09:03:26;;;;;;;2.35;1.45;;;;;;;;;;10303555;28;20180;-80
2023/07/13 09:08:33;;;;;;;3.50;1.30;;;;;;;;;;10307155;28;20039;-77
2023/07/13 09:13:36;;;;;;;3.47;1.38;;;;;;;;;;10323808;28;20042;-76
2023/07/13 09:18:38;;;;;;;1.92;1.20;;;;;;;;;;10307650;28;20400;-75
2023/07/13 09:23:39;;;;;;;2.28;1.10;;;;;;;;;;10305816;28;20053;-76
2023/07/13 09:28:43;;;;;;;3.03;1.40;;;;;;;;;;10307439;28;20077;-77
2023/07/13 09:33:44;;;;;;;1.90;1.20;;;;;;;;;;10304411;28;20582;-78
2023/07/13 09:38:46;;;;;;;2.33;1.15;;;;;;;;;;10299533;28;20125;-74
2023/07/13 09:44:22;;;;;;;4.60;1.30;;;;;;;;;;10305952;28;20068;-74
2023/07/13 09:49:26;;;;;;;5.25;1.85;;;;;;;;;;10232786;28;20086;-76
2023/07/13 09:54:26;;;;;;;2.42;1.27;;;;;;;;;;10303501;28;20098;-75
2023/07/13 09:59:29;;;;;;;2.93;1.90;;;;;;;;;;10303591;28;20035;-74
2023/07/13 10:04:36;;;;;;;2.10;1.63;;;;;;;;;;10300770;28;20033;-74
2023/07/13 10:09:36;;;;;;;3.83;1.30;;;;;;;;;;10301961;28;20205;-74
2023/07/13 10:14:36;;;;;;;2.10;1.30;;;;;;;;;;10300015;28;20062;-77
2023/07/13 10:19:37;;;;;;;3.03;1.50;;;;;;;;;;10301678;28;20289;-76
2023/07/13 10:24:39;;;;;;;3.72;1.27;;;;;;;;;;10302549;28;20026;-76
2023/07/13 10:29:45;;;;;;;2.90;1.17;;;;;;;;;;10304266;28;20046;-76
2023/07/13 10:34:47;;;;;;;2.17;1.10;;;;;;;;;;10307230;28;20037;-79
2023/07/13 10:39:49;;;;;;;2.25;1.52;;;;;;;;;;10314879;28;20017;-74
2023/07/13 10:44:49;;;;;;;3.40;1.77;;;;;;;;;;10318360;28;20049;-74
2023/07/13 10:49:52;;;;;;;2.13;1.40;;;;;;;;;;10311486;28;20038;-80
2023/07/13 10:54:54;;;;;;;4.22;1.27;;;;;;;;;;10317076;28;20462;-78
2023/07/13 11:00:01;;;;;;;1.63;1.05;;;;;;;;;;10315985;28;20489;-75
2023/07/13 11:05:19;;;;;;;1.60;1.48;;;;;;;;;;10312483;28;20178;-75
2023/07/13 11:10:58;;;;;;;2.38;1.70;;;;;;;;;;10304792;28;20042;-76
2023/07/13 11:15:59;;;;;;;4.10;1.50;;;;;;;;;;10186566;29;20039;-77
2023/07/13 11:21:19;;;;;;;2.37;1.40;;;;;;;;;;10279388;28;20458;-77
2023/07/13 11:26:38;;;;;;;1.88;1.30;;;;;;;;;;10308977;28;20073;-73
2023/07/13 11:31:39;;;;;;;6.07;3.72;;;;;;;;;;10310143;28;20046;-75
2023/07/13 11:36:42;;;;;;;2.33;1.33;;;;;;;;;;10308639;28;20038;-74
2023/07/13 11:41:45;;;;;;;8.07;2.83;;;;;;;;;;10311124;28;20649;-75
2023/07/13 11:46:51;;;;;;;3.42;1.80;;;;;;;;;;10304847;28;20065;-75
2023/07/13 11:51:55;;;;;;;2.97;1.92;;;;;;;;;;10306266;28;20109;-73
2023/07/13 11:56:58;;;;;;;1.63;1.42;;;;;;;;;;10303848;28;20038;-74
2023/07/13 12:01:58;;;;;;;3.75;1.60;;;;;;;;;;10304482;28;20074;-75
2023/07/13 12:07:06;;;;;;;2.65;1.40;;;;;;;;;;10303858;28;20038;-75
2023/07/13 12:12:11;;;;;;;3.72;1.40;;;;;;;;;;10299547;28;20471;-76
2023/07/13 12:17:15;;;;;;;3.00;1.25;;;;;;;;;;10306131;28;20035;-76
2023/07/13 12:22:17;;;;;;;3.67;1.60;;;;;;;;;;10303633;28;20035;-78
2023/07/13 12:27:20;;;;;;;2.55;1.40;;;;;;;;;;10303011;28;20263;-76
2023/07/13 12:32:20;;;;;;;4.10;1.60;;;;;;;;;;10305300;28;20664;-76
2023/07/13 12:37:20;;;;;;;2.40;1.43;;;;;;;;;;10305774;28;20050;-76
2023/07/13 12:42:29;;;;;;;2.60;1.50;;;;;;;;;;10299066;28;20085;-77
2023/07/13 12:47:30;;;;;;;3.35;1.60;;;;;;;;;;10302503;28;20035;-77
2023/07/13 12:52:32;;;;;;;4.40;1.45;;;;;;;;;;10316839;28;20061;-79
2023/07/13 12:57:38;;;;;;;5.15;3.42;;;;;;;;;;10311714;28;20505;-76
2023/07/13 13:02:38;;;;;;;2.63;1.45;;;;;;;;;;10329728;28;20035;-77
2023/07/13 13:07:39;;;;;;;2.27;1.20;;;;;;;;;;10305914;28;20085;-77
2023/07/13 13:12:42;;;;;;;2.47;1.40;;;;;;;;;;10302146;28;20133;-77
2023/07/13 13:17:42;;;;;;;4.35;1.60;;;;;;;;;;10307691;28;20547;-78
2023/07/13 13:22:42;;;;;;;2.22;1.50;;;;;;;;;;10302657;28;20041;-78
2023/07/13 13:27:44;;;;;;;2.63;1.50;;;;;;;;;;10302052;28;20046;-78
2023/07/13 13:32:47;;;;;;;4.32;1.30;;;;;;;;;;10306246;28;20042;-78
2023/07/13 13:37:47;;;;;;;4.38;1.63;;;;;;;;;;10303107;28;20042;-77
2023/07/13 13:42:48;;;;;;;2.27;1.40;;;;;;;;;;10305351;28;20370;-76
2023/07/13 13:47:48;;;;;;;3.03;1.50;;;;;;;;;;10303690;28;20398;-77
2023/07/13 13:52:49;;;;;;;3.10;1.70;;;;;;;;;;10301500;28;20161;-78
2023/07/13 13:57:49;;;;;;;1.80;1.30;;;;;;;;;;10308024;28;20034;-76
2023/07/13 14:02:50;;;;;;;3.00;1.40;;;;;;;;;;10305432;28;20038;-79
2023/07/13 14:07:52;;;;;;;3.27;1.37;;;;;;;;;;10303568;28;20522;-78
2023/07/13 14:12:53;;;;;;;2.60;1.40;;;;;;;;;;10309438;28;20495;-77
2023/07/13 14:17:54;;;;;;;2.67;1.60;;;;;;;;;;10316999;28;20031;-77
2023/07/13 14:22:55;;;;;;;3.37;1.80;;;;;;;;;;10308826;28;20038;-78
2023/07/13 14:27:58;;;;;;;3.67;1.83;;;;;;;;;;10310855;28;21379;-77
2023/07/13 14:32:59;;;;;;;3.00;1.90;;;;;;;;;;10311693;28;20050;-82
2023/07/13 14:38:00;;;;;;;5.93;3.23;;;;;;;;;;10313954;28;20842;-76
2023/07/13 14:43:00;;;;;;;2.58;1.67;;;;;;;;;;10299701;28;20038;-77
2023/07/13 14:48:01;;;;;;;3.63;1.50;;;;;;;;;;10312224;28;20038;-77
2023/07/13 14:53:01;;;;;;;2.43;1.33;;;;;;;;;;10305300;28;20057;-80
2023/07/13 14:58:02;;;;;;;5.10;1.63;;;;;;;;;;10309005;28;20372;-76
2023/07/13 15:03:03;;;;;;;2.80;1.85;;;;;;;;;;10308846;28;20041;-76
2023/07/13 15:08:04;;;;;;;3.22;2.40;;;;;;;;;;10309049;28;20030;-78
2023/07/13 15:13:16;;;;;;;2.30;1.77;;;;;;;;;;10304424;28;20069;-76
2023/07/13 15:18:17;;;;;;;;;;;;;;;;;;10307848;28;20070;-76
2023/07/13 15:23:17;;;;;;;2.50;1.70;;;;;;;;;;10303300;28;19918;-77
2023/07/13 15:28:18;;;;;;;2.17;1.60;;;;;;;;;;10306160;28;20042;-77
2023/07/13 15:33:23;;;;;;;3.37;2.30;;;;;;;;;;10309900;28;20090;-76
2023/07/13 15:38:25;;;;;;;2.22;1.65;;;;;;;;;;10307105;28;20089;-77
2023/07/13 15:43:26;;;;;;;3.97;1.98;;;;;;;;;;10313045;28;20051;-76
2023/07/13 15:48:30;;;;;;;3.90;1.67;;;;;;;;;;10308507;28;20039;-77
2023/07/13 15:53:35;;;;;;;3.55;2.08;;;;;;;;;;10307368;28;20046;-75
2023/07/13 15:58:35;;;;;;;3.08;1.80;;;;;;;;;;10323961;28;20783;-77
2023/07/13 16:03:36;;;;;;;3.20;1.90;;;;;;;;;;10307464;28;20034;-76
2023/07/13 16:08:39;;;;;;;4.53;1.63;;;;;;;;;;10307390;28;20044;-79
2023/07/13 16:13:40;;;;;;;5.22;2.25;;;;;;;;;;10304736;28;20043;-74
2023/07/13 16:18:40;;;;;;;3.57;1.73;;;;;;;;;;10312937;28;20042;-76
2023/07/13 16:23:42;;;;;;;4.23;1.83;;;;;;;;;;10311941;28;20038;-75
2023/07/13 16:28:43;;;;;;;2.60;1.63;;;;;;;;;;10314357;28;20566;-77
2023/07/13 16:33:43;;;;;;;3.70;1.58;;;;;;;;;;10310005;28;20059;-77
2023/07/13 16:38:45;;;;;;;2.30;1.38;;;;;;;;;;10308727;28;20039;-78
2023/07/13 16:43:45;;;;;;;3.08;1.55;;;;;;;;;;10311450;28;20039;-75
2023/07/13 16:48:46;;;;;;;1.60;1.50;;;;;;;;;;10314852;28;20043;-77
2023/07/13 16:53:46;;;;;;;5.40;1.80;;;;;;;;;;10314403;28;20043;-75
2023/07/13 16:58:47;;;;;;;1.40;1.20;;;;;;;;;;10325940;28;20104;-79
2023/07/13 17:03:47;;;;;;;2.80;1.77;;;;;;;;;;10323554;28;20068;-77
2023/07/13 17:08:48;;;;;;;2.45;1.60;;;;;;;;;;10319072;28;20347;-78
2023/07/13 17:13:49;;;;;;;3.07;1.80;;;;;;;;;;10318191;28;21339;-76
2023/07/13 17:18:50;;;;;;;2.05;1.70;;;;;;;;;;10321283;28;20038;-78
2023/07/13 17:23:52;;;;;;;3.88;1.83;;;;;;;;;;10324671;28;20092;-78
2023/07/13 17:28:52;;;;;;;2.90;1.40;;;;;;;;;;10312564;28;20785;-78
2023/07/13 17:33:52;;;;;;;2.13;1.40;;;;;;;;;;10322597;28;20054;-77
2023/07/13 17:38:56;;;;;;;2.30;1.40;;;;;;;;;;10305691;28;20100;-77
2023/07/13 17:43:56;;;;;;;9.52;7.07;;;;;;;;;;10308972;28;20049;-83
2023/07/13 17:48:57;;;;;;;2.93;1.67;;;;;;;;;;10322013;28;20038;-75
2023/07/13 17:53:57;;;;;;;2.60;1.55;;;;;;;;;;10334915;28;20130;-78
2023/07/13 17:58:59;;;;;;;1.98;1.50;;;;;;;;;;10316844;28;20112;-76
2023/07/13 18:04:00;;;;;;;4.80;2.10;;;;;;;;;;10331555;28;20107;-80
2023/07/13 18:09:01;;;;;;;6.68;2.60;;;;;;;;;;10317683;28;20039;-76
2023/07/13 18:14:03;;;;;;;3.17;1.70;;;;;;;;;;10309317;28;20039;-75
2023/07/13 18:19:04;;;;;;;2.90;1.55;;;;;;;;;;10315663;28;20110;-76
2023/07/13 18:24:08;;;;;;;3.17;1.85;;;;;;;;;;10306438;28;20886;-75
2023/07/13 18:29:08;;;;;;;3.95;2.85;;;;;;;;;;10312279;28;20041;-78
2023/07/13 18:34:09;;;;;;;5.57;3.78;;;;;;;;;;10310165;28;20433;-77
2023/07/13 18:39:14;;;;;;;2.85;2.10;;;;;;;;;;10312127;28;20053;-76
2023/07/13 18:44:14;;;;;;;3.58;2.08;;;;;;;;;;10308157;28;20038;-77
2023/07/13 18:49:15;;;;;;;2.97;2.30;;;;;;;;;;10312347;28;20442;-75
2023/07/13 18:54:15;;;;;;;2.65;2.08;;;;;;;;;;10314216;28;20470;-76
2023/07/13 18:59:16;;;;;;;2.47;1.93;;;;;;;;;;10308539;28;20034;-76
2023/07/13 19:04:30;;;;;;;3.95;3.15;;;;;;;;;;10311687;28;20096;-75
2023/07/13 19:09:30;;;;;;;3.50;2.00;;;;;;;;;;10311860;28;20049;-77
2023/07/13 19:14:31;;;;;;;2.07;1.87;;;;;;;;;;10312376;28;20113;-79
2023/07/13 19:19:32;;;;;;;3.58;1.75;;;;;;;;;;10306436;28;20038;-80
2023/07/13 19:24:33;;;;;;;2.80;1.67;;;;;;;;;;10308531;28;20038;-78
2023/07/13 19:29:36;;;;;;;2.33;1.80;;;;;;;;;;10324573;28;20485;-81
2023/07/13 19:34:36;;;;;;;1.95;1.70;;;;;;;;;;10311351;28;20070;-76
2023/07/13 19:39:40;;;;;;;2.13;1.58;;;;;;;;;;10307661;28;20047;-77
2023/07/13 19:44:41;;;;;;;4.30;1.95;;;;;;;;;;10307705;28;20038;-77
2023/07/13 19:49:45;;;;;;;2.97;1.63;;;;;;;;;;10310931;28;20096;-78
2023/07/13 19:54:48;;;;;;;3.22;1.98;;;;;;;;;;10311550;28;20114;-78
2023/07/13 19:59:51;;;;;;;3.80;2.17;;;;;;;;;;10308925;28;20149;-80
2023/07/13 20:04:52;;;;;;;2.72;2.35;;;;;;;;;;10307007;28;20438;-77
2023/07/13 20:09:53;;;;;;;6.23;2.27;;;;;;;;;;10309665;28;20046;-79
2023/07/13 20:14:54;;;;;;;2.22;1.92;;;;;;;;;;10312823;28;20313;-80
2023/07/13 20:19:54;;;;;;;3.00;1.90;;;;;;;;;;10308999;28;20047;-77
2023/07/13 20:24:55;;;;;;;2.60;1.70;;;;;;;;;;10301879;28;20046;-76
2023/07/13 20:29:57;;;;;;;3.65;2.20;;;;;;;;;;10304599;28;20069;-79
2023/07/13 20:34:57;;;;;;;2.83;1.93;;;;;;;;;;10310815;28;20061;-78
2023/07/13 20:39:59;;;;;;;4.03;2.10;;;;;;;;;;10300705;28;20046;-78
2023/07/13 20:44:59;;;;;;;2.95;2.00;;;;;;;;;;10308912;28;20410;-81
2023/07/13 20:50:01;;;;;;;3.38;2.28;;;;;;;;;;10301123;28;20643;-82
2023/07/13 20:55:03;;;;;;;;;;;;;;;;;;10306065;28;20034;-81
2023/07/13 21:00:04;;;;;;;3.33;2.13;;;;;;;;;;10305969;28;20505;-83
2023/07/13 21:05:13;;;;;;;3.92;2.10;;;;;;;;;;10299978;28;20469;-82
2023/07/13 21:10:23;;;;;;;2.60;2.15;;;;;;;;;;10303294;28;20050;-80
2023/07/13 21:15:26;;;;;;;3.88;2.13;;;;;;;;;;10304410;28;20042;-81
2023/07/13 21:20:37;;;;;;;2.55;1.85;;;;;;;;;;10307343;28;20474;-81
2023/07/13 21:25:38;;;;;;;3.30;2.40;;;;;;;;;;10300921;28;20046;-80
2023/07/13 21:30:40;;;;;;;2.83;1.83;;;;;;;;;;10304875;28;20089;-82
2023/07/13 21:35:42;;;;;;;4.60;1.80;;;;;;;;;;10303877;28;20066;-82
2023/07/13 21:40:45;;;;;;;3.40;1.80;;;;;;;;;;10301250;28;20042;-79
2023/07/13 21:45:45;;;;;;;4.20;1.90;;;;;;;;;;10302349;28;20049;-81
2023/07/13 21:50:51;;;;;;;8.00;2.80;;;;;;;;;;10305317;28;20046;-79
2023/07/13 21:55:52;;;;;;;3.55;2.60;;;;;;;;;;10306013;28;20034;-81
2023/07/13 22:00:54;;;;;;;;;;;;;;;;;;10314204;28;20453;-79
2023/07/13 22:05:55;;;;;;;3.65;2.35;;;;;;;;;;10353078;28;19929;-78
2023/07/13 22:10:58;;;;;;;6.20;2.55;;;;;;;;;;10345188;28;21173;-80
2023/07/13 22:15:58;;;;;;;4.07;2.28;;;;;;;;;;10350160;28;20111;-79
2023/07/13 22:20:59;;;;;;;2.60;2.20;;;;;;;;;;10338444;28;20064;-78
2023/07/13 22:25:59;;;;;;;3.40;2.20;;;;;;;;;;10338882;28;20301;-78
2023/07/13 22:31:00;;;;;;;2.80;2.25;;;;;;;;;;10336028;28;20067;-77
2023/07/13 22:36:00;;;;;;;3.45;2.20;;;;;;;;;;10348891;28;20033;-77
2023/07/13 22:41:01;;;;;;;2.83;2.10;;;;;;;;;;10342381;28;20045;-79
2023/07/13 22:46:03;;;;;;;2.93;2.17;;;;;;;;;;10345572;28;20045;-81
2023/07/13 22:51:09;;;;;;;3.33;2.15;;;;;;;;;;10347347;28;20038;-77
2023/07/13 22:56:10;;;;;;;3.42;2.08;;;;;;;;;;10347245;28;20251;-76
2023/07/13 23:01:15;;;;;;;3.03;2.17;;;;;;;;;;10342975;28;20046;-80
2023/07/13 23:06:20;;;;;;;3.95;2.20;;;;;;;;;;10353899;28;20470;-79
2023/07/13 23:11:24;;;;;;;4.07;2.15;;;;;;;;;;10351206;28;20100;-80
2023/07/13 23:16:26;;;;;;;4.82;2.20;;;;;;;;;;10356588;28;20086;-84
2023/07/13 23:21:28;;;;;;;2.22;2.03;;;;;;;;;;10351440;28;20053;-78
2023/07/13 23:26:28;;;;;;;3.42;2.40;;;;;;;;;;10354866;28;20053;-78
2023/07/13 23:31:30;;;;;;;3.22;2.08;;;;;;;;;;10351655;28;20501;-78
2023/07/13 23:36:31;;;;;;;3.27;2.20;;;;;;;;;;10351702;28;20040;-81
2023/07/13 23:41:32;;;;;;;3.65;2.40;;;;;;;;;;10377813;28;20440;-77
2023/07/13 23:46:39;;;;;;;3.30;2.20;;;;;;;;;;10355214;28;20042;-77
2023/07/13 23:51:39;;;;;;;4.00;2.20;;;;;;;;;;10340936;28;20054;-78
2023/07/13 23:56:41;;;;;;;2.50;2.03;;;;;;;;;;10348242;28;20061;-78
